Time,TemperatureF,DewpointF,PressureIn,WindDirection,WindDirectionDegrees,WindSpeedMPH,WindSpeedGustMPH,Humidity,HourlyPrecipIn,Conditions,Clouds,dailyrainin,SoftwareType,DateUTC
2013-07-22 00:02:00,81.0,-99.9,30.08,South,181,13.0,17.0,-999,-99.99,,,-99.99,,2013-07-22 05:02:00,
2013-07-22 00:11:00,81.0,-99.9,30.08,South,182,13.0,16.0,-999,-99.99,,,-99.99,,2013-07-22 05:11:00,
2013-07-22 00:32:00,81.0,-99.9,30.08,South,183,13.0,17.0,-999,-99.99,,,-99.99,,2013-07-22 05:32:00,
2013-07-22 00:43:00,81.0,-99.9,30.08,South,180,13.0,16.0,-999,-99.99,,,-99.99,,2013-07-22 05:43:00,
2013-07-22 00:52:00,81.0,-99.9,30.07,South,180,13.0,16.0,-999,-99.99,,,-99.99,,2013-07-22 05:52:00,
2013-07-22 01:01:00,81.0,-99.9,30.07,South,181,12.0,15.0,-999,-99.99,,,-99.99,,2013-07-22 06:01:00,
2013-07-22 01:11:00,81.0,-99.9,30.07,South,181,11.0,15.0,-999,-99.99,,,-99.99,,2013-07-22 06:11:00,
2013-07-22 01:33:00,81.0,-99.9,30.06,South,187,12.0,14.0,-999,-99.99,,,-99.99,,2013-07-22 06:33:00,
2013-07-22 01:43:00,81.0,-99.9,30.06,South,187,11.0,15.0,-999,-99.99,,,-99.99,,2013-07-22 06:43:00,
2013-07-22 01:52:00,81.0,-99.9,30.06,South,190,9.0,14.0,-999,-99.99,,,-99.99,,2013-07-22 06:52:00,
2013-07-22 02:01:00,81.0,-99.9,30.06,SSW,197,7.0,13.0,-999,-99.99,,,-99.99,,2013-07-22 07:01:00,
2013-07-22 02:12:00,81.0,-99.9,30.06,SSW,206,8.0,14.0,-999,-99.99,,,-99.99,,2013-07-22 07:12:00,
2013-07-22 02:33:00,81.0,-99.9,30.05,SSW,200,9.0,15.0,-999,-99.99,,,-99.99,,2013-07-22 07:33:00,
2013-07-22 02:43:00,81.0,-99.9,30.05,SSW,204,8.0,14.0,-999,-99.99,,,-99.99,,2013-07-22 07:43:00,
2013-07-22 02:53:00,81.0,-99.9,30.05,SSW,208,10.0,15.0,-999,-99.99,,,-99.99,,2013-07-22 07:53:00,
2013-07-22 03:02:00,81.0,-99.9,30.05,SSW,212,10.0,13.0,-999,-99.99,,,-99.99,,2013-07-22 08:02:00,
2013-07-22 03:11:00,81.0,-99.9,30.05,SSW,211,10.0,14.0,-999,-99.99,,,-99.99,,2013-07-22 08:11:00,
2013-07-22 03:32:00,81.0,-99.9,30.05,SW,216,8.0,15.0,-999,-99.99,,,-99.99,,2013-07-22 08:32:00,
2013-07-22 03:43:00,81.0,-99.9,30.05,SSW,211,9.0,15.0,-999,-99.99,,,-99.99,,2013-07-22 08:43:00,
2013-07-22 03:52:00,81.0,-99.9,30.05,SW,216,9.0,15.0,-999,-99.99,,,-99.99,,2013-07-22 08:52:00,
2013-07-22 04:02:00,81.0,-99.9,30.05,SW,219,9.0,17.0,-999,-99.99,,,-99.99,,2013-07-22 09:02:00,
2013-07-22 04:11:00,81.0,-99.9,30.05,SW,220,10.0,14.0,-999,-99.99,,,-99.99,,2013-07-22 09:11:00,
2013-07-22 04:33:00,81.0,-99.9,30.05,SW,214,10.0,15.0,-999,-99.99,,,-99.99,,2013-07-22 09:33:00,
2013-07-22 04:42:00,82.0,-99.9,30.05,SW,227,12.0,14.0,-999,-99.99,,,-99.99,,2013-07-22 09:42:00,
2013-07-22 04:52:00,82.0,-99.9,30.05,SW,221,9.0,15.0,-999,-99.99,,,-99.99,,2013-07-22 09:52:00,
2013-07-22 05:02:00,81.0,-99.9,30.05,SW,225,11.0,16.0,-999,-99.99,,,-99.99,,2013-07-22 10:02:00,
2013-07-22 05:11:00,82.0,-99.9,30.05,SW,224,11.0,16.0,-999,-99.99,,,-99.99,,2013-07-22 10:11:00,
2013-07-22 05:32:00,82.0,-99.9,30.06,SW,227,15.0,19.0,-999,-99.99,,,-99.99,,2013-07-22 10:32:00,
2013-07-22 05:43:00,82.0,-99.9,30.06,SW,231,11.0,30.0,-999,-99.99,,,-99.99,,2013-07-22 10:43:00,
2013-07-22 05:53:00,77.0,-99.9,30.07,WSW,255,11.0,14.0,-999,-99.99,,,-99.99,,2013-07-22 10:53:00,
2013-07-22 06:02:00,77.0,-99.9,30.07,West,273,8.0,11.0,-999,-99.99,,,-99.99,,2013-07-22 11:02:00,
2013-07-22 06:11:00,79.0,-99.9,30.06,SW,235,6.0,9.0,-999,-99.99,,,-99.99,,2013-07-22 11:11:00,
2013-07-22 06:32:00,80.0,-99.9,30.06,WSW,245,6.0,9.0,-999,-99.99,,,-99.99,,2013-07-22 11:32:00,
2013-07-22 06:43:00,80.0,-99.9,30.06,WSW,247,6.0,9.0,-999,-99.99,,,-99.99,,2013-07-22 11:43:00,
2013-07-22 06:52:00,80.0,-99.9,30.07,West,259,6.0,11.0,-999,-99.99,,,-99.99,,2013-07-22 11:52:00,
2013-07-22 07:02:00,80.0,-99.9,30.07,WSW,251,7.0,11.0,-999,-99.99,,,-99.99,,2013-07-22 12:02:00,
2013-07-22 07:12:00,80.0,-99.9,30.07,WSW,258,6.0,9.0,-999,-99.99,,,-99.99,,2013-07-22 12:12:00,
2013-07-22 07:33:00,81.0,-99.9,30.07,WSW,254,7.0,9.0,-999,-99.99,,,-99.99,,2013-07-22 12:33:00,
2013-07-22 07:43:00,81.0,-99.9,30.08,WSW,254,8.0,10.0,-999,-99.99,,,-99.99,,2013-07-22 12:43:00,
2013-07-22 07:53:00,82.0,-99.9,30.08,WSW,254,9.0,15.0,-999,-99.99,,,-99.99,,2013-07-22 12:53:00,
2013-07-22 08:01:00,82.0,-99.9,30.09,West,260,9.0,12.0,-999,-99.99,,,-99.99,,2013-07-22 13:01:00,
2013-07-22 08:11:00,82.0,-99.9,30.09,West,262,8.0,11.0,-999,-99.99,,,-99.99,,2013-07-22 13:11:00,
2013-07-22 08:32:00,82.0,-99.9,30.09,WSW,254,9.0,13.0,-999,-99.99,,,-99.99,,2013-07-22 13:32:00,
2013-07-22 08:43:00,82.0,-99.9,30.09,WSW,256,9.0,13.0,-999,-99.99,,,-99.99,,2013-07-22 13:43:00,
2013-07-22 08:53:00,83.0,-99.9,30.09,WSW,255,8.0,12.0,-999,-99.99,,,-99.99,,2013-07-22 13:53:00,
2013-07-22 09:02:00,83.0,-99.9,30.09,WSW,249,9.0,14.0,-999,-99.99,,,-99.99,,2013-07-22 14:02:00,
2013-07-22 09:11:00,83.0,-99.9,30.10,WSW,250,8.0,11.0,-999,-99.99,,,-99.99,,2013-07-22 14:11:00,
2013-07-22 09:32:00,83.0,-99.9,30.10,WSW,247,10.0,14.0,-999,-99.99,,,-99.99,,2013-07-22 14:32:00,
2013-07-22 09:43:00,83.0,-99.9,30.10,WSW,255,10.0,15.0,-999,-99.99,,,-99.99,,2013-07-22 14:43:00,
2013-07-22 09:53:00,84.0,-99.9,30.09,WSW,244,10.0,17.0,-999,-99.99,,,-99.99,,2013-07-22 14:53:00,
2013-07-22 10:02:00,84.0,-99.9,30.09,WSW,247,9.0,16.0,-999,-99.99,,,-99.99,,2013-07-22 15:02:00,
2013-07-22 10:11:00,84.0,-99.9,30.09,WSW,239,11.0,15.0,-999,-99.99,,,-99.99,,2013-07-22 15:11:00,
2013-07-22 10:33:00,83.0,-99.9,30.09,WSW,241,11.0,17.0,-999,-99.99,,,-99.99,,2013-07-22 15:33:00,
2013-07-22 10:43:00,83.0,-99.9,30.09,WSW,240,9.0,13.0,-999,-99.99,,,-99.99,,2013-07-22 15:43:00,
2013-07-22 10:52:00,83.0,-99.9,30.09,SW,229,10.0,15.0,-999,-99.99,,,-99.99,,2013-07-22 15:52:00,
2013-07-22 11:01:00,83.0,-99.9,30.09,SW,225,11.0,16.0,-999,-99.99,,,-99.99,,2013-07-22 16:01:00,
2013-07-22 11:11:00,83.0,-99.9,30.09,SW,236,8.0,11.0,-999,-99.99,,,-99.99,,2013-07-22 16:11:00,
2013-07-22 11:32:00,78.0,-99.9,30.10,WSW,237,15.0,24.0,-999,-99.99,,,-99.99,,2013-07-22 16:32:00,
2013-07-22 11:43:00,78.0,-99.9,30.10,SSW,212,16.0,21.0,-999,-99.99,,,-99.99,,2013-07-22 16:43:00,
2013-07-22 11:52:00,80.0,-99.9,30.09,SW,222,14.0,20.0,-999,-99.99,,,-99.99,,2013-07-22 16:52:00,
2013-07-22 12:02:00,81.0,-99.9,30.10,SW,227,13.0,20.0,-999,-99.99,,,-99.99,,2013-07-22 17:02:00,
2013-07-22 12:11:00,81.0,-99.9,30.10,WSW,238,10.0,17.0,-999,-99.99,,,-99.99,,2013-07-22 17:11:00,
2013-07-22 12:33:00,80.0,-99.9,30.11,NNW,332,11.0,14.0,-999,-99.99,,,-99.99,,2013-07-22 17:33:00,
2013-07-22 12:43:00,79.0,-99.9,30.11,NNW,328,13.0,14.0,-999,-99.99,,,-99.99,,2013-07-22 17:43:00,
2013-07-22 12:52:00,78.0,-99.9,30.10,North,354,5.0,5.0,-999,-99.99,,,-99.99,,2013-07-22 17:52:00,
2013-07-22 13:05:00,79.0,-99.9,30.10,WNW,294,1.0,2.0,-999,-99.99,,,-99.99,,2013-07-22 18:05:00,
2013-07-22 13:17:00,79.0,-99.9,30.09,West,271,1.0,4.0,-999,-99.99,,,-99.99,,2013-07-22 18:17:00,
2013-07-22 13:40:00,81.0,-99.9,30.09,SW,232,3.0,6.0,-999,-99.99,,,-99.99,,2013-07-22 18:40:00,
2013-07-22 13:55:00,81.0,-99.9,30.09,SW,227,4.0,6.0,-999,-99.99,,,-99.99,,2013-07-22 18:55:00,
2013-07-22 14:06:00,84.0,-99.9,30.07,WSW,239,13.0,17.0,-999,-99.99,,,-99.99,,2013-07-22 19:06:00,
2013-07-22 14:17:00,85.0,-99.9,30.07,WSW,242,13.0,18.0,-999,-99.99,,,-99.99,,2013-07-22 19:17:00,
2013-07-22 14:37:00,84.0,-99.9,30.07,WSW,239,12.0,17.0,-999,-99.99,,,-99.99,,2013-07-22 19:37:00,
2013-07-22 14:47:00,84.0,-99.9,30.07,WSW,239,11.0,17.0,-999,-99.99,,,-99.99,,2013-07-22 19:47:00,
2013-07-22 14:55:00,84.0,-99.9,30.07,WSW,239,12.0,17.0,-999,-99.99,,,-99.99,,2013-07-22 19:55:00,
2013-07-22 15:05:00,84.0,-99.9,30.06,SW,226,12.0,15.0,-999,-99.99,,,-99.99,,2013-07-22 20:05:00,
2013-07-22 15:17:00,84.0,-99.9,30.06,SW,230,11.0,15.0,-999,-99.99,,,-99.99,,2013-07-22 20:17:00,
2013-07-22 15:32:00,83.0,-99.9,30.06,SW,226,15.0,18.0,-999,-99.99,,,-99.99,,2013-07-22 20:32:00,
2013-07-22 15:43:00,83.0,-99.9,30.05,SW,222,14.0,17.0,-999,-99.99,,,-99.99,,2013-07-22 20:43:00,
2013-07-22 15:52:00,84.0,-99.9,30.05,SW,223,11.0,19.0,-999,-99.99,,,-99.99,,2013-07-22 20:52:00,
2013-07-22 16:01:00,84.0,-99.9,30.06,SW,225,14.0,18.0,-999,-99.99,,,-99.99,,2013-07-22 21:01:00,
2013-07-22 16:12:00,83.0,-99.9,30.06,SW,226,14.0,19.0,-999,-99.99,,,-99.99,,2013-07-22 21:12:00,
2013-07-22 16:33:00,84.0,-99.9,30.06,SW,225,13.0,15.0,-999,-99.99,,,-99.99,,2013-07-22 21:33:00,
2013-07-22 16:43:00,84.0,-99.9,30.06,SW,226,11.0,16.0,-999,-99.99,,,-99.99,,2013-07-22 21:43:00,
2013-07-22 16:53:00,84.0,-99.9,30.06,SW,216,7.0,13.0,-999,-99.99,,,-99.99,,2013-07-22 21:53:00,
2013-07-22 17:02:00,83.0,-99.9,30.06,SSW,208,10.0,26.0,-999,-99.99,,,-99.99,,2013-07-22 22:02:00,
2013-07-22 17:11:00,81.0,-99.9,30.06,WSW,240,10.0,15.0,-999,-99.99,,,-99.99,,2013-07-22 22:11:00,
2013-07-22 17:32:00,81.0,-99.9,30.06,WSW,254,10.0,12.0,-999,-99.99,,,-99.99,,2013-07-22 22:32:00,
2013-07-22 17:43:00,80.0,-99.9,30.04,West,261,9.0,13.0,-999,-99.99,,,-99.99,,2013-07-22 22:43:00,
2013-07-22 17:52:00,80.0,-99.9,30.04,West,263,8.0,12.0,-999,-99.99,,,-99.99,,2013-07-22 22:52:00,
2013-07-22 18:02:00,82.0,-99.9,30.05,West,265,8.0,13.0,-999,-99.99,,,-99.99,,2013-07-22 23:02:00,
2013-07-22 18:11:00,82.0,-99.9,30.05,WSW,253,9.0,14.0,-999,-99.99,,,-99.99,,2013-07-22 23:11:00,
2013-07-22 18:32:00,83.0,-99.9,30.05,WSW,242,8.0,10.0,-999,-99.99,,,-99.99,,2013-07-22 23:32:00,
2013-07-22 18:43:00,83.0,-99.9,30.04,SW,235,9.0,16.0,-999,-99.99,,,-99.99,,2013-07-22 23:43:00,
2013-07-22 18:52:00,83.0,-99.9,30.05,SW,236,12.0,37.0,-999,-99.99,,,-99.99,,2013-07-22 23:52:00,
2013-07-22 19:01:00,75.0,-99.9,30.06,NNW,332,29.0,32.0,-999,-99.99,,,-99.99,,2013-07-23 00:01:00,
2013-07-22 19:12:00,75.0,-99.9,30.08,NW,304,17.0,18.0,-999,-99.99,,,-99.99,,2013-07-23 00:12:00,
2013-07-22 19:32:00,74.0,-99.9,30.06,WSW,241,11.0,15.0,-999,-99.99,,,-99.99,,2013-07-23 00:32:00,
2013-07-22 19:43:00,74.0,-99.9,30.06,WSW,253,10.0,13.0,-999,-99.99,,,-99.99,,2013-07-23 00:43:00,
2013-07-22 19:52:00,75.0,-99.9,30.06,WSW,240,10.0,17.0,-999,-99.99,,,-99.99,,2013-07-23 00:52:00,
2013-07-22 20:01:00,75.0,-99.9,30.07,WSW,246,9.0,11.0,-999,-99.99,,,-99.99,,2013-07-23 01:01:00,
2013-07-22 20:11:00,76.0,-99.9,30.08,WSW,249,8.0,11.0,-999,-99.99,,,-99.99,,2013-07-23 01:11:00,
2013-07-22 20:32:00,76.0,-99.9,30.08,WNW,282,4.0,9.0,-999,-99.99,,,-99.99,,2013-07-23 01:32:00,
2013-07-22 20:44:00,76.0,-99.9,30.08,WNW,288,6.0,9.0,-999,-99.99,,,-99.99,,2013-07-23 01:44:00,
2013-07-22 20:53:00,76.0,-99.9,30.08,WNW,291,5.0,8.0,-999,-99.99,,,-99.99,,2013-07-23 01:53:00,
2013-07-22 21:02:00,77.0,-99.9,30.08,NNW,331,6.0,8.0,-999,-99.99,,,-99.99,,2013-07-23 02:02:00,
2013-07-22 21:11:00,78.0,-99.9,30.08,West,271,4.0,4.0,-999,-99.99,,,-99.99,,2013-07-23 02:11:00,
2013-07-22 21:33:00,76.0,-99.9,30.09,WSW,253,1.0,1.0,-999,-99.99,,,-99.99,,2013-07-23 02:33:00,
2013-07-22 21:43:00,76.0,-99.9,30.09,North,-999,-999.0,-999.0,-999,-99.99,,,-99.99,,2013-07-23 02:43:00,
2013-07-22 21:53:00,77.0,-99.9,30.09,North,-999,-999.0,-999.0,-999,-99.99,,,-99.99,,2013-07-23 02:53:00,
2013-07-22 22:02:00,77.0,-99.9,30.09,SW,214,4.0,4.0,-999,-99.99,,,-99.99,,2013-07-23 03:02:00,
2013-07-22 22:11:00,77.0,-99.9,30.08,SSW,208,4.0,4.0,-999,-99.99,,,-99.99,,2013-07-23 03:11:00,
2013-07-22 22:33:00,78.0,-99.9,30.08,SSW,206,3.0,4.0,-999,-99.99,,,-99.99,,2013-07-23 03:33:00,
2013-07-22 22:43:00,78.0,-99.9,30.08,SSW,195,4.0,4.0,-999,-99.99,,,-99.99,,2013-07-23 03:43:00,
2013-07-22 22:52:00,78.0,-99.9,30.08,SSW,203,4.0,6.0,-999,-99.99,,,-99.99,,2013-07-23 03:52:00,
2013-07-22 23:02:00,79.0,-99.9,30.08,SSW,205,4.0,6.0,-999,-99.99,,,-99.99,,2013-07-23 04:02:00,
2013-07-22 23:11:00,79.0,-99.9,30.08,SSW,199,4.0,7.0,-999,-99.99,,,-99.99,,2013-07-23 04:11:00,
2013-07-22 23:32:00,79.0,-99.9,30.07,SSW,199,5.0,7.0,-999,-99.99,,,-99.99,,2013-07-23 04:32:00,
2013-07-22 23:43:00,79.0,-99.9,30.07,SSW,212,5.0,6.0,-999,-99.99,,,-99.99,,2013-07-23 04:43:00,
2013-07-22 23:53:00,79.0,-99.9,30.07,SSW,203,5.0,7.0,-999,-99.99,,,-99.99,,2013-07-23 04:53:00,